WJA1541 KIAH-CYYC
Flight info
| Callsign | WJA1541 |
|---|---|
| Flight time | N/A |
| Altitude | 36000 |
| Route | STYCK8 DOLEY DCT ADM DCT IRW DCT HYS DCT RAP/N0460F380 DCT COKEE DCT VESDO EBGAL7 |
| Aircraft | B738/M-SDE2E3FGHIRWXY/LB1 |
Departure
| Time | N/A |
|---|---|
| Airport | George Bush Intercontinental Airport (KIAH) |
Arrival
| Time | 2026-04-29 01:10 |
|---|---|
| Airport | Calgary International Airport (CYYC) |
| Time | Latitude | Longitude | Altitude | Speed | Heading |
|---|---|---|---|---|---|
| 2026-04-29 00:22 | 48.35769 | -108.45923 | 36087 ft | 428 kts | 311° |
| 2026-04-29 00:23 | 48.39743 | -108.52578 | 36086 ft | 428 kts | 311° |
| 2026-04-29 00:23 | 48.43761 | -108.59324 | 36091 ft | 428 kts | 311° |
| 2026-04-29 00:24 | 48.47733 | -108.66006 | 36087 ft | 428 kts | 311° |
| 2026-04-29 00:24 | 48.51704 | -108.72705 | 36084 ft | 428 kts | 311° |
| 2026-04-29 00:25 | 48.55643 | -108.79366 | 36091 ft | 428 kts | 311° |
| 2026-04-29 00:25 | 48.59604 | -108.86081 | 36098 ft | 428 kts | 311° |
| 2026-04-29 00:26 | 48.63562 | -108.92808 | 36104 ft | 428 kts | 311° |
| 2026-04-29 00:26 | 48.67515 | -108.99544 | 36097 ft | 428 kts | 311° |
| 2026-04-29 00:27 | 48.71465 | -109.06294 | 36084 ft | 428 kts | 311° |
| 2026-04-29 00:27 | 48.75406 | -109.13044 | 36092 ft | 427 kts | 311° |
| 2026-04-29 00:28 | 48.79311 | -109.19750 | 36098 ft | 427 kts | 311° |
| 2026-04-29 00:28 | 48.83237 | -109.26509 | 36097 ft | 427 kts | 311° |
| 2026-04-29 00:29 | 48.87156 | -109.33274 | 36096 ft | 426 kts | 311° |
| 2026-04-29 00:29 | 48.91066 | -109.40040 | 36090 ft | 426 kts | 311° |
| 2026-04-29 00:30 | 48.94973 | -109.46816 | 36088 ft | 426 kts | 311° |
| 2026-04-29 00:30 | 48.98844 | -109.53548 | 36100 ft | 425 kts | 311° |
| 2026-04-29 00:31 | 49.02735 | -109.60337 | 36086 ft | 425 kts | 311° |
| 2026-04-29 00:31 | 49.06620 | -109.67131 | 36088 ft | 425 kts | 311° |
| 2026-04-29 00:32 | 49.10499 | -109.73930 | 36088 ft | 425 kts | 311° |
| 2026-04-29 00:32 | 49.14374 | -109.80741 | 36090 ft | 425 kts | 311° |
| 2026-04-29 00:33 | 49.18244 | -109.87562 | 36079 ft | 424 kts | 311° |
| 2026-04-29 00:33 | 49.22080 | -109.94338 | 36078 ft | 424 kts | 311° |
| 2026-04-29 00:34 | 49.25930 | -110.01157 | 36088 ft | 423 kts | 311° |
| 2026-04-29 00:34 | 49.29776 | -110.07988 | 36097 ft | 423 kts | 311° |
| 2026-04-29 00:35 | 49.33618 | -110.14828 | 36103 ft | 423 kts | 311° |
| 2026-04-29 00:35 | 49.37453 | -110.21676 | 36095 ft | 423 kts | 311° |
| 2026-04-29 00:36 | 49.41280 | -110.28525 | 36101 ft | 423 kts | 311° |
| 2026-04-29 00:36 | 49.45107 | -110.35392 | 36096 ft | 423 kts | 311° |
| 2026-04-29 00:37 | 49.48904 | -110.42225 | 36100 ft | 423 kts | 311° |
| 2026-04-29 00:37 | 49.52722 | -110.49114 | 36107 ft | 423 kts | 311° |
| 2026-04-29 00:38 | 49.56538 | -110.56015 | 36107 ft | 423 kts | 311° |
| 2026-04-29 00:38 | 49.60353 | -110.62934 | 36111 ft | 423 kts | 311° |
| 2026-04-29 00:39 | 49.64159 | -110.69855 | 36101 ft | 423 kts | 311° |
| 2026-04-29 00:39 | 49.67958 | -110.76781 | 36113 ft | 423 kts | 311° |
| 2026-04-29 00:40 | 49.71729 | -110.83675 | 36113 ft | 423 kts | 311° |
| 2026-04-29 00:40 | 49.75521 | -110.90626 | 36110 ft | 423 kts | 311° |
| 2026-04-29 00:41 | 49.79306 | -110.97582 | 36112 ft | 423 kts | 311° |
| 2026-04-29 00:41 | 49.83087 | -111.04550 | 36114 ft | 422 kts | 311° |
| 2026-04-29 00:42 | 49.86861 | -111.11521 | 36116 ft | 422 kts | 311° |
| 2026-04-29 00:42 | 49.90627 | -111.18499 | 36119 ft | 422 kts | 311° |
| 2026-04-29 00:43 | 49.94366 | -111.25444 | 36121 ft | 422 kts | 311° |
| 2026-04-29 00:43 | 49.98060 | -111.32528 | 36102 ft | 423 kts | 305° |
| 2026-04-29 00:44 | 50.01001 | -111.40448 | 36126 ft | 424 kts | 301° |
| 2026-04-29 00:44 | 50.03856 | -111.48460 | 36114 ft | 423 kts | 301° |
| 2026-04-29 00:45 | 50.06720 | -111.56460 | 36124 ft | 423 kts | 301° |
| 2026-04-29 00:45 | 50.08164 | -111.60476 | 35699 ft | 429 kts | 301° |
| 2026-04-29 00:45 | 50.09617 | -111.64516 | 35147 ft | 427 kts | 301° |
| 2026-04-29 00:45 | 50.11048 | -111.68498 | 34528 ft | 427 kts | 301° |
| 2026-04-29 00:46 | 50.12497 | -111.72535 | 33837 ft | 427 kts | 301° |
| 2026-04-29 00:46 | 50.13947 | -111.76578 | 33074 ft | 427 kts | 301° |
| 2026-04-29 00:46 | 50.15393 | -111.80618 | 32441 ft | 425 kts | 301° |
| 2026-04-29 00:46 | 50.16822 | -111.84619 | 31951 ft | 420 kts | 301° |
| 2026-04-29 00:47 | 50.18233 | -111.88575 | 31442 ft | 415 kts | 301° |
| 2026-04-29 00:47 | 50.19626 | -111.92489 | 30966 ft | 411 kts | 301° |
| 2026-04-29 00:47 | 50.21010 | -111.96379 | 30474 ft | 407 kts | 301° |
| 2026-04-29 00:47 | 50.22377 | -112.00228 | 29957 ft | 404 kts | 301° |
| 2026-04-29 00:48 | 50.23728 | -112.04038 | 29436 ft | 399 kts | 301° |
| 2026-04-29 00:48 | 50.25064 | -112.07812 | 28935 ft | 394 kts | 301° |
| 2026-04-29 00:48 | 50.26379 | -112.11532 | 28448 ft | 389 kts | 301° |
| 2026-04-29 00:48 | 50.27678 | -112.15212 | 27972 ft | 385 kts | 301° |
| 2026-04-29 00:49 | 50.28961 | -112.18851 | 27499 ft | 380 kts | 301° |
| 2026-04-29 00:49 | 50.30226 | -112.22445 | 27024 ft | 376 kts | 301° |
| 2026-04-29 00:49 | 50.31480 | -112.26011 | 26557 ft | 372 kts | 301° |
| 2026-04-29 00:49 | 50.32707 | -112.29504 | 26098 ft | 370 kts | 301° |
| 2026-04-29 00:50 | 50.33939 | -112.33017 | 25632 ft | 367 kts | 300° |
| 2026-04-29 00:50 | 50.35161 | -112.36507 | 25181 ft | 364 kts | 300° |
| 2026-04-29 00:50 | 50.36376 | -112.39979 | 24717 ft | 363 kts | 300° |
| 2026-04-29 00:50 | 50.37585 | -112.43443 | 24270 ft | 361 kts | 300° |
| 2026-04-29 00:51 | 50.38785 | -112.46884 | 23831 ft | 359 kts | 300° |
| 2026-04-29 00:51 | 50.39978 | -112.50308 | 23330 ft | 358 kts | 300° |
| 2026-04-29 00:51 | 50.41165 | -112.53723 | 22824 ft | 355 kts | 300° |
| 2026-04-29 00:51 | 50.42341 | -112.57111 | 22388 ft | 352 kts | 300° |
| 2026-04-29 00:52 | 50.43508 | -112.60475 | 21932 ft | 349 kts | 300° |
| 2026-04-29 00:52 | 50.44660 | -112.63804 | 21498 ft | 347 kts | 300° |
| 2026-04-29 00:52 | 50.45791 | -112.67071 | 21074 ft | 344 kts | 300° |
| 2026-04-29 00:52 | 50.46927 | -112.70359 | 20637 ft | 342 kts | 300° |
| 2026-04-29 00:53 | 50.48055 | -112.73630 | 20207 ft | 340 kts | 300° |
| 2026-04-29 00:53 | 50.49177 | -112.76886 | 19776 ft | 338 kts | 300° |
| 2026-04-29 00:53 | 50.50290 | -112.80121 | 19368 ft | 336 kts | 300° |
| 2026-04-29 00:53 | 50.51398 | -112.83343 | 18965 ft | 334 kts | 300° |
| 2026-04-29 00:54 | 50.52499 | -112.86551 | 18521 ft | 333 kts | 300° |
| 2026-04-29 00:54 | 50.53596 | -112.89750 | 18063 ft | 332 kts | 300° |
| 2026-04-29 00:54 | 50.54687 | -112.92935 | 17617 ft | 330 kts | 300° |
| 2026-04-29 00:54 | 50.55766 | -112.96089 | 17210 ft | 326 kts | 300° |
| 2026-04-29 00:55 | 50.56825 | -112.99187 | 16770 ft | 325 kts | 300° |
| 2026-04-29 00:55 | 50.57889 | -113.02309 | 16335 ft | 323 kts | 300° |
| 2026-04-29 00:55 | 50.58947 | -113.05417 | 15917 ft | 321 kts | 300° |
| 2026-04-29 00:55 | 50.59997 | -113.08503 | 15510 ft | 319 kts | 300° |
| 2026-04-29 00:56 | 50.61038 | -113.11566 | 15102 ft | 316 kts | 300° |
| 2026-04-29 00:56 | 50.62071 | -113.14608 | 14710 ft | 314 kts | 300° |
| 2026-04-29 00:56 | 50.63098 | -113.17637 | 14317 ft | 312 kts | 300° |
| 2026-04-29 00:56 | 50.64102 | -113.20603 | 14168 ft | 302 kts | 300° |
| 2026-04-29 00:57 | 50.65078 | -113.23490 | 14028 ft | 293 kts | 300° |
| 2026-04-29 00:57 | 50.66019 | -113.26276 | 13899 ft | 283 kts | 300° |
| 2026-04-29 00:57 | 50.66946 | -113.28970 | 13679 ft | 279 kts | 301° |
| 2026-04-29 00:57 | 50.67933 | -113.31636 | 13338 ft | 283 kts | 302° |
| 2026-04-29 00:58 | 50.68953 | -113.34335 | 12967 ft | 292 kts | 302° |
| 2026-04-29 00:58 | 50.70017 | -113.37153 | 12583 ft | 306 kts | 301° |
| 2026-04-29 00:58 | 50.71115 | -113.40072 | 12164 ft | 310 kts | 301° |
| 2026-04-29 00:58 | 50.72192 | -113.42953 | 11752 ft | 308 kts | 301° |
| 2026-04-29 00:59 | 50.73275 | -113.45859 | 11347 ft | 306 kts | 301° |
| 2026-04-29 00:59 | 50.74347 | -113.48745 | 10946 ft | 304 kts | 300° |
| 2026-04-29 00:59 | 50.75409 | -113.51613 | 10631 ft | 300 kts | 300° |
| 2026-04-29 00:59 | 50.76443 | -113.54405 | 10504 ft | 289 kts | 300° |
| 2026-04-29 01:00 | 50.77440 | -113.57104 | 10371 ft | 280 kts | 300° |
| 2026-04-29 01:00 | 50.78406 | -113.59721 | 10251 ft | 271 kts | 300° |
| 2026-04-29 01:00 | 50.79341 | -113.62257 | 10136 ft | 263 kts | 300° |
| 2026-04-29 01:00 | 50.80250 | -113.64727 | 9904 ft | 259 kts | 300° |
| 2026-04-29 01:01 | 50.81144 | -113.67156 | 9768 ft | 249 kts | 300° |
| 2026-04-29 01:01 | 50.81977 | -113.69426 | 9661 ft | 235 kts | 300° |
| 2026-04-29 01:01 | 50.82773 | -113.71594 | 9542 ft | 221 kts | 300° |
| 2026-04-29 01:01 | 50.83524 | -113.73640 | 9431 ft | 209 kts | 300° |
| 2026-04-29 01:02 | 50.84232 | -113.75570 | 9274 ft | 199 kts | 300° |
| 2026-04-29 01:02 | 50.84919 | -113.77448 | 8992 ft | 196 kts | 300° |
| 2026-04-29 01:02 | 50.85595 | -113.79295 | 8704 ft | 193 kts | 300° |
| 2026-04-29 01:02 | 50.86274 | -113.81150 | 8358 ft | 194 kts | 301° |
| 2026-04-29 01:03 | 50.86943 | -113.82980 | 8086 ft | 192 kts | 301° |
| 2026-04-29 01:03 | 50.87616 | -113.84824 | 7711 ft | 195 kts | 301° |
| 2026-04-29 01:03 | 50.88297 | -113.86690 | 7419 ft | 194 kts | 301° |
| 2026-04-29 01:03 | 50.88964 | -113.88516 | 7241 ft | 191 kts | 301° |
| 2026-04-29 01:04 | 50.89628 | -113.90337 | 7157 ft | 193 kts | 301° |
| 2026-04-29 01:04 | 50.90305 | -113.92194 | 7095 ft | 199 kts | 302° |
| 2026-04-29 01:04 | 50.90998 | -113.94097 | 7058 ft | 202 kts | 301° |
| 2026-04-29 01:04 | 50.91701 | -113.96031 | 6895 ft | 202 kts | 302° |
| 2026-04-29 01:05 | 50.92459 | -113.97839 | 6775 ft | 192 kts | 320° |
| 2026-04-29 01:05 | 50.93627 | -113.98544 | 6697 ft | 176 kts | 355° |
| 2026-04-29 01:05 | 50.94866 | -113.98774 | 6565 ft | 183 kts | 353° |
| 2026-04-29 01:05 | 50.96139 | -113.98958 | 6364 ft | 184 kts | 358° |
| 2026-04-29 01:06 | 50.97418 | -113.99017 | 6158 ft | 183 kts | 0° |
| 2026-04-29 01:06 | 50.98677 | -113.99029 | 6062 ft | 180 kts | 1° |
| 2026-04-29 01:06 | 50.99905 | -113.99030 | 5814 ft | 170 kts | 1° |
| 2026-04-29 01:06 | 51.01026 | -113.99031 | 5610 ft | 151 kts | 1° |
| 2026-04-29 01:07 | 51.02022 | -113.99031 | 5399 ft | 139 kts | 2° |
| 2026-04-29 01:07 | 51.02986 | -113.99029 | 5211 ft | 139 kts | 2° |
| 2026-04-29 01:07 | 51.03941 | -113.99028 | 5030 ft | 139 kts | 3° |
| 2026-04-29 01:07 | 51.04895 | -113.99022 | 4828 ft | 137 kts | 4° |
| 2026-04-29 01:08 | 51.05846 | -113.99021 | 4631 ft | 135 kts | 1° |
| 2026-04-29 01:08 | 51.06785 | -113.99062 | 4431 ft | 135 kts | 3° |
| 2026-04-29 01:08 | 51.07722 | -113.99069 | 4265 ft | 135 kts | 4° |
| 2026-04-29 01:08 | 51.08660 | -113.99051 | 4077 ft | 135 kts | 3° |
| 2026-04-29 01:09 | 51.09603 | -113.99031 | 3888 ft | 135 kts | 2° |
| 2026-04-29 01:09 | 51.10530 | -113.99040 | 3705 ft | 133 kts | 2° |
| 2026-04-29 01:09 | 51.11447 | -113.99038 | 3552 ft | 127 kts | 2° |
| 2026-04-29 01:09 | 51.12227 | -113.99034 | 3547 ft | 92 kts | 360° |
| 2026-04-29 01:10 | 51.12739 | -113.99034 | 3554 ft | 64 kts | 360° |
| 2026-04-29 01:10 | 51.13073 | -113.99167 | 3557 ft | 25 kts | 332° |
| 2026-04-29 01:10 | 51.13144 | -113.99234 | 3555 ft | 0 kts | 321° |
| 2026-04-29 01:11 | 51.13162 | -113.99295 | 3557 ft | 6 kts | 271° |
| 2026-04-29 01:11 | 51.13120 | -113.99311 | 3564 ft | 11 kts | 174° |
| 2026-04-29 01:12 | 51.13022 | -113.99303 | 3556 ft | 17 kts | 179° |
| 2026-04-29 01:12 | 51.12890 | -113.99304 | 3553 ft | 20 kts | 181° |
| 2026-04-29 01:12 | 51.12756 | -113.99308 | 3554 ft | 13 kts | 181° |
| 2026-04-29 01:12 | 51.12701 | -113.99419 | 3554 ft | 16 kts | 274° |
| 2026-04-29 01:13 | 51.12704 | -113.99621 | 3555 ft | 20 kts | 269° |
| 2026-04-29 01:13 | 51.12704 | -113.99864 | 3555 ft | 24 kts | 270° |
| 2026-04-29 01:13 | 51.12704 | -114.00143 | 3555 ft | 27 kts | 269° |
| 2026-04-29 01:13 | 51.12704 | -114.00461 | 3553 ft | 29 kts | 271° |
| 2026-04-29 01:14 | 51.12760 | -114.00644 | 3551 ft | 19 kts | 359° |
| 2026-04-29 01:14 | 51.12846 | -114.00568 | 3552 ft | 14 kts | 73° |
| 2026-04-29 01:14 | 51.12862 | -114.00484 | 3552 ft | 0 kts | 74° |